Time;durP1;ratioP1;P1;durP2;ratioP2;P2;SDS_P1;SDS_P2;PMS_P1;PMS_P2;Temp;Humidity;BMP_temperature;BMP_pressure;BME280_temperature;BME280_humidity;BME280_pressure;Samples;Min_cycle;Max_cycle;Signal;HPM_P1;HPM_P2
2022/11/30 00:01:09;;;;;;;55.72;26.75;;;11.10;65.00;;;;;;5016299;28;20057;-47
2022/11/30 00:03:37;;;;;;;53.17;25.50;;;11.10;65.00;;;;;;5020950;28;20060;-48
2022/11/30 00:06:05;;;;;;;51.10;24.80;;;11.10;65.00;;;;;;5023628;28;20141;-48
2022/11/30 00:08:32;;;;;;;59.75;28.70;;;11.10;65.00;;;;;;5018335;28;20046;-44
2022/11/30 00:10:59;;;;;;;58.08;26.17;;;11.10;64.90;;;;;;5012349;28;20409;-47
2022/11/30 00:13:28;;;;;;;56.38;26.30;;;11.10;64.80;;;;;;5023802;28;20057;-45
2022/11/30 00:16:00;;;;;;;55.42;25.73;;;11.10;64.90;;;;;;5020725;28;20057;-46
2022/11/30 00:18:27;;;;;;;50.53;25.13;;;11.10;64.90;;;;;;5018302;28;20413;-44
2022/11/30 00:20:56;;;;;;;68.70;28.67;;;11.10;64.90;;;;;;5018378;28;20053;-45
2022/11/30 00:23:23;;;;;;;57.60;25.50;;;11.10;64.90;;;;;;5020785;28;20525;-48
2022/11/30 00:25:50;;;;;;;78.70;28.45;;;11.10;64.90;;;;;;5015019;28;20061;-50
2022/11/30 00:28:17;;;;;;;52.03;26.13;;;11.10;64.90;;;;;;5012520;28;20486;-50
2022/11/30 00:30:46;;;;;;;47.00;23.88;;;11.10;64.80;;;;;;5010977;28;20060;-49
2022/11/30 00:33:13;;;;;;;51.63;23.08;;;11.10;64.90;;;;;;5023901;28;20711;-43
2022/11/30 00:35:40;;;;;;;43.30;21.73;;;11.00;64.90;;;;;;5020921;28;20061;-45
2022/11/30 00:38:07;;;;;;;51.08;24.05;;;11.10;65.00;;;;;;5013399;28;20494;-48
2022/11/30 00:40:35;;;;;;;42.15;21.75;;;11.10;65.00;;;;;;5015728;28;20057;-48
2022/11/30 00:43:02;;;;;;;46.80;22.30;;;11.10;65.00;;;;;;5024374;28;20057;-46
2022/11/30 00:45:29;;;;;;;37.40;19.33;;;11.10;65.00;;;;;;5017021;28;20074;-45
2022/11/30 00:47:57;;;;;;;35.03;19.58;;;11.10;65.00;;;;;;5022351;28;20057;-46
2022/11/30 00:50:25;;;;;;;34.13;18.65;;;11.10;65.00;;;;;;5014804;28;20054;-47
2022/11/30 00:52:52;;;;;;;41.05;19.40;;;11.00;65.00;;;;;;5017658;28;20053;-43
2022/11/30 00:55:19;;;;;;;35.05;19.45;;;11.00;65.00;;;;;;5021454;28;20045;-47
2022/11/30 00:57:46;;;;;;;42.50;20.75;;;11.00;65.00;;;;;;5012572;28;20422;-46
2022/11/30 01:00:14;;;;;;;44.22;21.55;;;11.00;65.00;;;;;;5018247;28;20064;-47
2022/11/30 01:02:41;;;;;;;47.95;23.77;;;11.00;65.00;;;;;;5022814;28;20060;-46
2022/11/30 01:05:10;;;;;;;40.90;21.05;;;11.00;64.90;;;;;;5019998;28;20057;-50
2022/11/30 01:07:37;;;;;;;56.22;24.95;;;10.90;64.90;;;;;;5019292;28;20060;-45
2022/11/30 01:10:05;;;;;;;66.65;27.80;;;10.90;65.10;;;;;;5015938;28;20057;-46
2022/11/30 01:12:32;;;;;;;66.70;27.17;;;10.90;65.10;;;;;;5015376;28;20053;-45
2022/11/30 01:15:00;;;;;;;56.92;26.08;;;10.90;65.10;;;;;;5019748;28;20073;-43
2022/11/30 01:17:27;;;;;;;85.32;27.38;;;10.90;65.10;;;;;;5014909;28;20057;-46
2022/11/30 01:19:54;;;;;;;60.22;26.25;;;10.90;65.30;;;;;;5022138;28;20501;-47
2022/11/30 01:22:23;;;;;;;64.97;26.17;;;10.80;65.30;;;;;;5015390;28;20428;-45
2022/11/30 01:24:50;;;;;;;60.95;26.25;;;10.80;65.50;;;;;;5021527;28;20072;-46
2022/11/30 01:27:17;;;;;;;53.70;25.20;;;10.80;65.50;;;;;;5022582;28;20381;-46
2022/11/30 01:29:44;;;;;;;54.75;24.85;;;10.80;65.50;;;;;;5022028;28;20053;-43
2022/11/30 01:32:12;;;;;;;59.67;26.90;;;10.80;65.60;;;;;;5016377;28;20499;-52
2022/11/30 01:34:39;;;;;;;56.60;24.85;;;10.80;65.60;;;;;;5023211;28;20060;-51
2022/11/30 01:37:06;;;;;;;49.38;22.90;;;10.80;65.60;;;;;;5016334;28;20068;-47
2022/11/30 01:39:35;;;;;;;42.83;20.80;;;10.70;65.60;;;;;;5020100;28;20054;-46
2022/11/30 01:42:02;;;;;;;54.15;24.55;;;10.70;65.70;;;;;;5015564;28;20056;-47
2022/11/30 01:44:52;;;;;;;44.55;23.08;;;10.70;65.80;;;;;;5022127;28;20147;-48
2022/11/30 01:47:24;;;;;;;55.63;24.00;;;10.70;65.90;;;;;;5019379;28;20528;-44
2022/11/30 01:49:55;;;;;;;61.00;27.65;;;10.70;66.50;;;;;;5023188;28;20064;-45
2022/11/30 01:52:26;;;;;;;60.20;28.20;;;10.70;65.80;;;;;;5017996;28;20072;-48
2022/11/30 01:55:00;;;;;;;61.97;29.52;;;10.70;65.90;;;;;;5013648;28;20057;-47
2022/11/30 01:57:31;;;;;;;103.63;35.05;;;10.70;66.00;;;;;;5016047;28;20057;-45
2022/11/30 02:00:01;;;;;;;92.35;33.70;;;10.70;66.70;;;;;;5020574;28;20061;-44
2022/11/30 02:02:37;;;;;;;126.72;33.20;;;10.60;66.00;;;;;;5018054;28;20049;-46
2022/11/30 02:05:05;;;;;;;63.63;29.90;;;10.60;66.10;;;;;;5017568;28;20057;-42
2022/11/30 02:07:33;;;;;;;116.40;33.03;;;10.60;66.10;;;;;;5013690;28;20056;-48
2022/11/30 02:10:01;;;;;;;76.30;31.60;;;10.60;66.30;;;;;;5018891;28;20057;-48
2022/11/30 02:12:40;;;;;;;91.63;31.98;;;10.60;66.50;;;;;;5019056;28;20421;-46
2022/11/30 02:15:12;;;;;;;180.00;33.47;;;10.60;66.60;;;;;;5017527;28;20056;-43
2022/11/30 02:17:49;;;;;;;181.98;34.53;;;10.50;66.60;;;;;;5017869;28;20053;-45
2022/11/30 02:20:29;;;;;;;228.32;33.13;;;10.50;67.50;;;;;;5015378;28;20053;-46
2022/11/30 02:23:13;;;;;;;88.63;29.77;;;10.50;66.90;;;;;;5019747;28;20728;-46
2022/11/30 02:25:54;;;;;;;88.05;31.48;;;10.50;67.00;;;;;;5018950;28;20056;-47
2022/11/30 02:28:43;;;;;;;106.53;31.38;;;10.50;67.10;;;;;;5024107;28;20056;-49
2022/11/30 02:31:15;;;;;;;180.80;33.40;;;10.40;67.20;;;;;;5020457;28;20057;-48
2022/11/30 02:33:43;;;;;;;187.65;33.10;;;10.40;67.30;;;;;;5019259;28;20086;-47
2022/11/30 02:36:11;;;;;;;266.67;33.45;;;10.40;67.40;;;;;;5011859;28;20513;-44
2022/11/30 02:38:39;;;;;;;121.22;31.75;;;10.40;67.50;;;;;;5005705;28;20045;-44
2022/11/30 02:41:06;;;;;;;304.52;35.58;;;10.40;67.60;;;;;;5018667;28;20042;-45
2022/11/30 02:43:35;;;;;;;180.35;31.73;;;10.40;67.70;;;;;;5023898;28;20068;-45
2022/11/30 02:46:09;;;;;;;108.88;29.60;;;10.30;67.80;;;;;;5021523;28;20053;-48
2022/11/30 02:48:43;;;;;;;507.67;38.60;;;10.30;67.90;;;;;;5021877;28;20045;-43
2022/11/30 02:51:15;;;;;;;94.68;32.45;;;10.30;68.00;;;;;;5011588;28;20045;-48
2022/11/30 02:53:43;;;;;;;209.45;32.75;;;10.30;68.00;;;;;;5024368;28;20072;-45
2022/11/30 02:56:10;;;;;;;132.75;29.73;;;10.30;68.00;;;;;;5020903;28;20050;-43
2022/11/30 02:58:39;;;;;;;232.20;33.10;;;10.30;68.10;;;;;;5022270;28;20065;-43
2022/11/30 03:01:07;;;;;;;325.60;35.38;;;10.40;68.20;;;;;;5021646;28;20053;-46
2022/11/30 03:03:34;;;;;;;306.02;34.30;;;10.30;68.20;;;;;;5023696;28;20498;-46
2022/11/30 03:06:01;;;;;;;297.30;32.17;;;10.40;68.10;;;;;;5025251;28;20056;-44
2022/11/30 03:08:28;;;;;;;303.58;34.03;;;10.30;68.10;;;;;;5021895;28;20057;-44
2022/11/30 03:10:55;;;;;;;236.07;33.08;;;10.30;68.10;;;;;;5018686;28;20053;-45
2022/11/30 03:13:23;;;;;;;212.30;33.15;;;10.40;68.20;;;;;;5023010;28;20120;-47
2022/11/30 03:15:51;;;;;;;346.27;35.30;;;10.30;68.20;;;;;;5020426;28;20049;-43
2022/11/30 03:18:18;;;;;;;155.20;32.42;;;10.30;68.20;;;;;;5016681;28;20413;-48
2022/11/30 03:20:46;;;;;;;156.30;30.95;;;10.30;68.20;;;;;;5018815;28;20052;-48
2022/11/30 03:23:13;;;;;;;445.75;36.00;;;10.40;68.40;;;;;;5018288;28;20409;-47
2022/11/30 03:25:41;;;;;;;393.30;36.03;;;10.40;68.40;;;;;;5023676;28;20053;-46
2022/11/30 03:28:08;;;;;;;287.83;33.65;;;10.40;68.40;;;;;;5022819;28;20045;-43
2022/11/30 03:33:59;;;;;;;353.10;36.35;;;10.40;68.50;;;;;;5121874;23;20065;-83
2022/11/30 03:36:27;;;;;;;321.88;34.10;;;10.40;68.30;;;;;;5001014;28;20059;-83
2022/11/30 03:38:55;;;;;;;218.20;32.85;;;10.40;68.20;;;;;;5007013;28;20058;-83
2022/11/30 03:41:22;;;;;;;87.20;29.23;;;10.40;68.30;;;;;;5012356;28;20054;-82
2022/11/30 03:43:54;;;;;;;137.00;33.33;;;10.40;68.40;;;;;;5015219;28;20065;-84
2022/11/30 03:46:23;;;;;;;92.60;30.50;;;10.30;68.40;;;;;;5024071;28;20038;-82
2022/11/30 03:48:53;;;;;;;92.05;30.48;;;10.40;68.50;;;;;;5022288;28;20057;-83
2022/11/30 03:51:31;;;;;;;70.70;27.95;;;10.40;68.50;;;;;;5020590;28;20053;-87
2022/11/30 03:53:59;;;;;;;65.45;28.30;;;10.40;69.10;;;;;;5019168;28;20072;-83
2022/11/30 03:56:26;;;;;;;200.18;29.40;;;10.40;68.40;;;;;;5018509;28;20623;-83
2022/11/30 03:58:54;;;;;;;217.55;32.72;;;10.40;68.30;;;;;;5017097;28;20072;-83
2022/11/30 04:01:22;;;;;;;72.18;28.30;;;10.40;68.20;;;;;;4998124;28;20065;-83
2022/11/30 04:03:51;;;;;;;119.70;28.00;;;10.30;68.10;;;;;;5005304;28;20084;-84
2022/11/30 04:06:19;;;;;;;149.30;29.38;;;10.30;68.40;;;;;;5007087;28;20061;-83
2022/11/30 04:08:48;;;;;;;150.02;30.83;;;10.30;68.40;;;;;;5005201;28;20489;-83
2022/11/30 04:11:15;;;;;;;72.57;27.50;;;10.30;68.40;;;;;;5004595;28;20068;-83
2022/11/30 04:13:43;;;;;;;70.13;26.02;;;10.30;68.40;;;;;;5008030;28;20469;-83
2022/11/30 04:16:10;;;;;;;143.48;26.67;;;10.20;68.30;;;;;;5005329;28;20054;-83
2022/11/30 04:18:38;;;;;;;50.28;24.08;;;10.20;68.40;;;;;;5006095;28;20390;-83
2022/11/30 04:21:07;;;;;;;62.67;23.45;;;10.20;68.60;;;;;;5006196;28;20065;-83
2022/11/30 04:23:36;;;;;;;57.17;22.65;;;10.20;68.70;;;;;;5005377;28;20065;-83
2022/11/30 04:26:06;;;;;;;104.18;22.42;;;10.20;68.80;;;;;;5004980;28;20060;-83
2022/11/30 04:28:34;;;;;;;144.00;23.65;;;10.20;69.00;;;;;;5007678;28;20050;-83
2022/11/30 04:31:02;;;;;;;143.45;24.48;;;10.20;68.90;;;;;;5006029;28;20046;-84
2022/11/30 04:33:30;;;;;;;90.13;21.75;;;10.20;68.90;;;;;;5004626;28;20065;-83
2022/11/30 04:35:59;;;;;;;102.10;22.73;;;10.20;69.00;;;;;;4997010;28;21581;-82
2022/11/30 04:38:27;;;;;;;129.60;23.00;;;10.20;68.90;;;;;;5005245;28;20041;-83
2022/11/30 04:40:55;;;;;;;109.60;23.48;;;10.30;69.00;;;;;;5005229;28;20507;-83
2022/11/30 04:43:23;;;;;;;178.25;25.50;;;10.20;68.80;;;;;;5002390;28;20050;-83
2022/11/30 04:45:51;;;;;;;88.65;22.45;;;10.20;68.80;;;;;;5001128;28;20053;-84
2022/11/30 04:48:19;;;;;;;211.60;25.92;;;10.20;68.70;;;;;;5003772;28;20421;-83
2022/11/30 04:50:46;;;;;;;89.07;22.55;;;10.20;68.80;;;;;;5003515;28;20057;-83
2022/11/30 04:53:13;;;;;;;101.18;23.30;;;10.20;68.80;;;;;;4997396;28;20065;-83
2022/11/30 04:55:41;;;;;;;183.63;23.52;;;10.20;68.80;;;;;;5006367;28;20068;-83
2022/11/30 04:58:08;;;;;;;107.35;23.23;;;10.20;68.90;;;;;;5002418;28;20054;-83
2022/11/30 05:00:37;;;;;;;188.02;25.27;;;10.20;68.90;;;;;;4998000;28;20050;-83
2022/11/30 05:03:05;;;;;;;165.73;23.20;;;10.20;68.90;;;;;;4997128;28;20061;-83
2022/11/30 05:05:32;;;;;;;195.73;23.90;;;10.20;68.90;;;;;;5004941;28;20058;-83
2022/11/30 05:08:00;;;;;;;95.25;21.23;;;10.20;69.00;;;;;;5003115;28;20137;-83
2022/11/30 05:10:30;;;;;;;86.50;21.73;;;10.20;69.10;;;;;;5004030;28;20057;-84
2022/11/30 05:12:58;;;;;;;132.27;23.98;;;10.20;69.20;;;;;;5003946;28;20493;-83
2022/11/30 05:15:25;;;;;;;124.40;22.60;;;10.20;69.20;;;;;;4985920;28;20079;-83
2022/11/30 05:17:57;;;;;;;92.55;21.75;;;10.20;69.20;;;;;;4977310;28;20073;-82
2022/11/30 05:20:25;;;;;;;111.22;22.92;;;10.20;69.20;;;;;;4994854;28;20988;-83
2022/11/30 05:22:52;;;;;;;203.73;24.23;;;10.20;69.20;;;;;;4993965;28;20058;-84
2022/11/30 05:25:19;;;;;;;224.90;24.98;;;10.20;69.20;;;;;;5003698;28;20057;-83
2022/11/30 05:27:47;;;;;;;167.80;23.90;;;10.20;69.20;;;;;;5006757;28;20072;-83
2022/11/30 05:30:14;;;;;;;86.70;22.27;;;10.20;69.20;;;;;;5009271;28;20057;-84
2022/11/30 05:32:42;;;;;;;132.05;22.70;;;10.20;69.20;;;;;;5010598;28;20064;-83
2022/11/30 05:35:11;;;;;;;423.92;30.60;;;10.30;69.30;;;;;;5012018;28;20058;-83
2022/11/30 05:37:38;;;;;;;90.88;21.55;;;10.30;69.30;;;;;;5003868;28;20381;-83
2022/11/30 05:40:07;;;;;;;217.75;25.05;;;10.30;69.30;;;;;;5009380;28;20054;-83
2022/11/30 05:42:34;;;;;;;52.88;22.45;;;10.30;69.30;;;;;;5006966;28;20046;-84
2022/11/30 05:45:01;;;;;;;384.15;26.80;;;10.30;69.20;;;;;;4997607;28;20057;-84
2022/11/30 05:47:28;;;;;;;306.17;26.63;;;10.30;69.30;;;;;;5004127;28;20054;-83
2022/11/30 05:49:56;;;;;;;130.57;22.00;;;10.30;69.20;;;;;;5011704;28;20057;-84
2022/11/30 05:52:25;;;;;;;137.90;23.38;;;10.30;69.20;;;;;;5003345;28;20058;-83
2022/11/30 05:54:52;;;;;;;68.25;21.42;;;10.40;69.30;;;;;;5005345;28;20482;-84
2022/11/30 05:57:20;;;;;;;213.98;24.63;;;10.40;69.30;;;;;;5008611;28;20049;-84
2022/11/30 05:59:47;;;;;;;240.98;27.75;;;10.40;69.30;;;;;;5002679;28;20061;-83
2022/11/30 06:02:15;;;;;;;174.55;23.33;;;10.40;69.30;;;;;;4996510;28;20061;-84
2022/11/30 06:04:42;;;;;;;95.45;21.17;;;10.40;69.30;;;;;;5000535;28;20508;-84
2022/11/30 06:07:10;;;;;;;293.95;24.45;;;10.40;69.20;;;;;;5002804;28;20065;-84
2022/11/30 06:09:39;;;;;;;138.32;22.52;;;10.40;69.30;;;;;;5001832;28;21326;-84
2022/11/30 06:12:07;;;;;;;98.25;20.45;;;10.40;69.20;;;;;;5004484;28;20080;-83
2022/11/30 06:14:35;;;;;;;59.42;20.85;;;10.50;69.30;;;;;;5013209;28;20516;-84
2022/11/30 06:17:02;;;;;;;167.55;24.25;;;10.50;69.30;;;;;;5008371;28;20050;-83
2022/11/30 06:19:29;;;;;;;221.95;23.83;;;10.50;69.20;;;;;;5012996;28;20064;-85
2022/11/30 06:21:56;;;;;;;79.97;19.90;;;10.50;69.20;;;;;;5006245;28;20061;-83
2022/11/30 06:24:24;;;;;;;138.82;21.80;;;10.50;69.10;;;;;;5009801;28;20054;-83
2022/11/30 06:26:52;;;;;;;210.43;21.83;;;10.50;69.00;;;;;;5013291;28;20046;-83
2022/11/30 06:29:20;;;;;;;229.98;23.70;;;10.60;69.10;;;;;;5016086;28;20053;-83
2022/11/30 06:31:48;;;;;;;90.95;21.83;;;10.60;69.00;;;;;;4999774;28;20589;-83
2022/11/30 06:34:15;;;;;;;158.57;21.10;;;10.60;68.90;;;;;;5005793;28;20058;-83
2022/11/30 06:36:42;;;;;;;37.55;18.67;;;10.60;68.90;;;;;;5005317;28;20046;-85
2022/11/30 06:39:10;;;;;;;49.33;18.88;;;10.60;68.90;;;;;;5013604;28;20161;-83
2022/11/30 06:41:38;;;;;;;45.53;19.15;;;10.60;69.10;;;;;;5011135;28;20037;-86
2022/11/30 06:44:09;;;;;;;316.63;26.02;;;10.60;69.10;;;;;;5006084;28;20057;-83
2022/11/30 06:46:36;;;;;;;237.88;24.60;;;10.60;69.20;;;;;;5013385;28;20069;-83
2022/11/30 06:49:05;;;;;;;215.98;22.98;;;10.60;69.00;;;;;;5017006;28;20129;-83
2022/11/30 06:51:32;;;;;;;264.13;24.48;;;10.60;69.00;;;;;;5008986;28;20054;-83
2022/11/30 06:54:00;;;;;;;422.02;28.35;;;10.70;69.00;;;;;;5013439;28;20057;-83
2022/11/30 06:56:27;;;;;;;306.67;24.98;;;10.60;68.80;;;;;;5010421;28;20057;-83
2022/11/30 06:58:54;;;;;;;142.60;22.55;;;10.70;68.70;;;;;;5013294;28;20054;-83
2022/11/30 07:01:23;;;;;;;45.35;20.88;;;10.70;68.70;;;;;;5004623;28;20055;-83
2022/11/30 07:03:50;;;;;;;122.05;22.95;;;10.70;68.60;;;;;;5004030;28;20073;-83
2022/11/30 07:06:17;;;;;;;248.60;25.70;;;10.70;68.70;;;;;;5016380;28;20054;-85
2022/11/30 07:08:45;;;;;;;311.38;25.65;;;10.70;68.70;;;;;;5017062;28;20038;-86
2022/11/30 07:11:13;;;;;;;257.35;28.15;;;10.70;68.60;;;;;;5011980;28;20056;-86
2022/11/30 07:13:40;;;;;;;183.32;26.08;;;10.70;68.70;;;;;;5018323;28;20052;-84
2022/11/30 07:16:10;;;;;;;63.13;21.15;;;10.70;68.60;;;;;;5025416;28;20050;-84
2022/11/30 07:18:39;;;;;;;200.40;27.50;;;10.70;68.70;;;;;;5023397;28;20058;-83
2022/11/30 07:21:06;;;;;;;222.82;28.65;;;10.70;68.60;;;;;;5013033;28;20041;-85
2022/11/30 07:26:19;;;;;;;101.95;25.38;;;10.70;68.60;;;;;;5013965;28;20065;-84
2022/11/30 07:28:49;;;;;;;71.38;25.48;;;10.60;68.60;;;;;;5022297;28;20053;-85
2022/11/30 07:31:19;;;;;;;53.42;23.27;;;10.60;68.60;;;;;;5013434;28;20034;-84
2022/11/30 07:33:47;;;;;;;278.52;28.40;;;10.70;69.00;;;;;;5014919;28;20058;-83
2022/11/30 07:36:16;;;;;;;278.92;27.92;;;10.70;69.00;;;;;;5018590;28;20068;-84
2022/11/30 07:38:44;;;;;;;83.95;24.92;;;10.70;68.90;;;;;;5017198;28;20038;-84
2022/11/30 07:41:11;;;;;;;57.80;23.80;;;10.70;68.90;;;;;;5020380;28;20042;-84
2022/11/30 07:43:42;;;;;;;69.75;24.98;;;10.70;68.80;;;;;;5021922;28;20045;-84
2022/11/30 07:46:11;;;;;;;82.88;29.17;;;10.70;69.50;;;;;;5023717;28;20034;-84
2022/11/30 07:48:38;;;;;;;65.78;26.88;;;10.70;69.50;;;;;;5027347;28;20064;-84
2022/11/30 07:51:12;;;;;;;59.83;26.52;;;10.60;68.60;;;;;;5022813;28;20038;-84
2022/11/30 07:53:39;;;;;;;71.50;29.58;;;10.70;68.60;;;;;;5021706;28;20053;-84
2022/11/30 07:56:08;;;;;;;65.18;26.88;;;10.60;68.60;;;;;;5016780;28;20066;-84
2022/11/30 07:58:37;;;;;;;57.90;25.38;;;10.60;68.60;;;;;;5013583;28;20141;-85
2022/11/30 08:01:06;;;;;;;90.03;33.03;;;10.60;68.80;;;;;;5013529;28;20129;-84
2022/11/30 08:03:34;;;;;;;66.55;28.02;;;10.60;68.80;;;;;;5026309;28;20042;-84
2022/11/30 08:06:03;;;;;;;86.18;31.38;;;10.60;68.90;;;;;;5017837;28;20044;-85
2022/11/30 08:08:33;;;;;;;78.15;31.83;;;10.60;68.90;;;;;;5011522;28;20058;-84
2022/11/30 08:11:01;;;;;;;65.70;28.30;;;10.60;68.90;;;;;;5021697;28;20044;-84
2022/11/30 08:13:29;;;;;;;82.72;31.27;;;10.70;68.90;;;;;;5019853;23;20057;-57
2022/11/30 08:16:00;;;;;;;74.13;29.45;;;10.60;68.80;;;;;;5000948;28;20437;-56
2022/11/30 08:18:27;;;;;;;69.35;28.63;;;10.70;68.70;;;;;;5003072;28;20057;-52
2022/11/30 08:20:58;;;;;;;76.63;30.55;;;10.70;68.70;;;;;;4998371;28;20409;-53
2022/11/30 08:23:26;;;;;;;79.88;31.40;;;10.70;68.70;;;;;;4997420;28;20544;-57
2022/11/30 08:25:54;;;;;;;86.75;33.97;;;10.70;68.70;;;;;;5003563;28;20057;-50
2022/11/30 08:28:22;;;;;;;68.85;29.08;;;10.70;68.60;;;;;;4998708;28;20104;-52
2022/11/30 08:30:49;;;;;;;85.60;32.58;;;10.70;68.70;;;;;;4993530;28;20481;-53
2022/11/30 08:33:16;;;;;;;70.05;28.10;;;10.70;68.80;;;;;;4996056;28;20064;-58
2022/11/30 08:35:43;;;;;;;80.00;31.83;;;10.70;68.70;;;;;;5002050;28;20065;-56
2022/11/30 08:38:11;;;;;;;80.97;33.67;;;10.70;68.80;;;;;;5000009;28;20065;-56
2022/11/30 08:40:38;;;;;;;149.27;38.53;;;10.70;68.70;;;;;;5002631;28;20046;-50
2022/11/30 08:43:06;;;;;;;276.05;40.80;;;10.70;68.60;;;;;;5003383;28;20494;-54
2022/11/30 08:45:34;;;;;;;168.40;39.10;;;10.70;68.80;;;;;;5001304;28;20062;-57
2022/11/30 08:48:01;;;;;;;193.70;39.80;;;10.70;68.50;;;;;;4995501;28;20054;-49
2022/11/30 08:50:28;;;;;;;142.73;37.25;;;10.70;68.40;;;;;;4993992;28;20053;-55
2022/11/30 08:52:56;;;;;;;108.47;38.42;;;10.70;68.20;;;;;;4995701;28;20580;-56
2022/11/30 08:55:23;;;;;;;104.68;40.28;;;10.70;68.10;;;;;;5003008;28;20088;-53
2022/11/30 08:57:50;;;;;;;102.65;41.10;;;10.70;67.90;;;;;;5000230;28;20060;-57
2022/11/30 09:00:20;;;;;;;92.75;40.20;;;10.70;67.70;;;;;;4997166;28;20490;-58
2022/11/30 09:02:47;;;;;;;90.55;38.92;;;10.70;67.30;;;;;;5000762;28;20513;-57
2022/11/30 09:05:14;;;;;;;89.03;36.30;;;10.60;66.90;;;;;;5000740;28;20084;-57
2022/11/30 09:07:42;;;;;;;76.32;34.00;;;10.60;67.00;;;;;;5001105;28;20072;-57
2022/11/30 09:10:10;;;;;;;75.97;33.10;;;10.50;67.00;;;;;;5001478;28;20058;-47
2022/11/30 09:12:38;;;;;;;73.25;31.85;;;10.50;67.10;;;;;;5002451;28;20058;-57
2022/11/30 09:15:07;;;;;;;76.18;34.08;;;10.50;67.00;;;;;;4995972;28;20402;-50
2022/11/30 09:17:35;;;;;;;77.70;33.63;;;10.50;66.90;;;;;;4994780;28;20516;-55
2022/11/30 09:20:03;;;;;;;68.00;31.45;;;10.40;66.80;;;;;;4995788;28;20061;-55
2022/11/30 09:22:30;;;;;;;71.95;31.85;;;10.40;66.80;;;;;;4997021;28;20401;-56
2022/11/30 09:24:57;;;;;;;85.72;34.55;;;10.40;66.90;;;;;;4995526;28;21351;-56
2022/11/30 09:27:29;;;;;;;75.32;32.83;;;10.40;66.80;;;;;;4996494;28;20068;-56
2022/11/30 09:29:57;;;;;;;73.53;32.58;;;10.40;66.70;;;;;;4997462;28;20057;-53
2022/11/30 09:32:24;;;;;;;74.32;32.28;;;10.30;66.60;;;;;;4995463;28;20631;-56
2022/11/30 09:34:52;;;;;;;66.88;32.65;;;10.30;66.60;;;;;;5000457;28;20502;-57
2022/11/30 09:37:20;;;;;;;61.72;31.17;;;10.30;66.40;;;;;;4999260;28;20061;-57
2022/11/30 09:39:48;;;;;;;53.85;28.35;;;10.20;66.40;;;;;;4995965;28;20066;-57
2022/11/30 09:42:28;;;;;;;54.28;27.98;;;10.20;66.50;;;;;;4999080;28;20057;-57
2022/11/30 09:45:03;;;;;;;60.28;30.40;;;10.20;66.70;;;;;;4997318;28;20061;-57
2022/11/30 09:48:02;;;;;;;61.13;30.42;;;10.20;66.70;;;;;;4996637;28;20057;-55
2022/11/30 09:50:35;;;;;;;58.50;29.77;;;10.20;66.60;;;;;;4999757;28;20072;-57
2022/11/30 09:53:06;;;;;;;50.28;27.45;;;10.20;66.50;;;;;;4996652;28;20060;-57
2022/11/30 09:55:39;;;;;;;49.47;26.48;;;10.20;66.60;;;;;;4995368;28;20054;-56
2022/11/30 09:58:07;;;;;;;63.15;30.02;;;10.20;66.80;;;;;;4997137;28;20520;-57
2022/11/30 10:00:35;;;;;;;56.80;29.67;;;10.20;66.80;;;;;;4996182;28;20740;-56
2022/11/30 10:03:05;;;;;;;62.65;30.42;;;10.20;66.80;;;;;;5000366;28;20065;-57
2022/11/30 10:05:45;;;;;;;56.67;30.38;;;10.20;66.80;;;;;;4996742;28;20058;-53
2022/11/30 10:08:29;;;;;;;59.20;30.92;;;10.20;66.60;;;;;;4998895;28;20525;-52
2022/11/30 10:11:17;;;;;;;65.60;29.05;;;10.20;66.60;;;;;;4987780;28;20060;-57
2022/11/30 10:13:55;;;;;;;65.50;30.10;;;10.20;66.60;;;;;;4994753;28;20596;-57
2022/11/30 10:16:34;;;;;;;53.10;26.85;;;10.20;66.60;;;;;;4998733;28;20058;-58
2022/11/30 10:19:10;;;;;;;62.63;30.58;;;10.20;66.60;;;;;;5001480;28;20525;-55
2022/11/30 10:21:53;;;;;;;58.72;31.98;;;10.10;66.40;;;;;;4994917;28;20061;-56
2022/11/30 10:24:35;;;;;;;53.72;26.85;;;10.10;66.40;;;;;;4995653;28;20054;-55
2022/11/30 10:27:12;;;;;;;50.47;27.42;;;10.10;66.50;;;;;;4995917;28;20053;-54
2022/11/30 10:29:42;;;;;;;56.70;27.85;;;10.10;66.50;;;;;;4996347;28;20054;-57
2022/11/30 10:32:16;;;;;;;63.20;29.10;;;10.10;66.50;;;;;;4992289;28;20056;-57
2022/11/30 10:34:46;;;;;;;54.85;27.02;;;10.10;66.60;;;;;;4999053;28;20057;-58
2022/11/30 10:37:19;;;;;;;57.53;29.15;;;10.10;66.60;;;;;;4994631;28;20504;-56
2022/11/30 10:39:57;;;;;;;57.90;29.70;;;10.10;66.60;;;;;;4999231;28;20068;-57
2022/11/30 10:42:31;;;;;;;50.88;26.95;;;10.10;66.70;;;;;;4998508;28;20512;-57
2022/11/30 10:45:01;;;;;;;54.55;28.75;;;10.10;66.60;;;;;;4998567;28;20417;-57
2022/11/30 10:47:32;;;;;;;56.83;28.80;;;10.10;66.60;;;;;;4996151;28;20064;-58
2022/11/30 10:50:00;;;;;;;52.67;27.45;;;10.10;66.60;;;;;;4999437;28;20513;-52
2022/11/30 10:52:33;;;;;;;54.25;28.85;;;10.10;66.60;;;;;;5000789;28;20058;-54
2022/11/30 10:55:01;;;;;;;51.88;27.42;;;10.00;66.50;;;;;;5003115;28;20165;-52
2022/11/30 10:57:31;;;;;;;53.55;26.85;;;10.00;66.60;;;;;;5000409;28;20065;-57
2022/11/30 11:00:05;;;;;;;57.25;30.02;;;10.00;66.60;;;;;;5003426;28;20061;-55
2022/11/30 11:02:33;;;;;;;;;;;10.00;66.60;;;;;;4999368;28;20405;-56
2022/11/30 11:05:21;;;;;;;48.58;26.95;;;10.00;66.70;;;;;;4998501;28;19932;-57
2022/11/30 11:07:55;;;;;;;55.20;28.75;;;10.00;66.60;;;;;;5000378;28;20616;-51
2022/11/30 11:10:29;;;;;;;56.13;28.92;;;10.00;66.70;;;;;;4994267;28;20858;-57
2022/11/30 11:12:56;;;;;;;;;;;10.00;66.70;;;;;;5002342;28;20058;-54
2022/11/30 11:15:26;;;;;;;58.97;27.98;;;10.00;67.40;;;;;;5002127;28;19960;-54
2022/11/30 11:18:11;;;;;;;54.50;27.35;;;9.90;66.50;;;;;;4996518;28;20049;-51
2022/11/30 11:20:42;;;;;;;57.83;29.05;;;9.90;66.70;;;;;;4999757;28;20049;-54
2022/11/30 11:23:21;;;;;;;53.53;28.73;;;9.90;66.90;;;;;;5001592;28;20054;-57
2022/11/30 11:25:52;;;;;;;53.00;28.38;;;9.80;67.20;;;;;;5004825;28;20060;-58
2022/11/30 11:28:21;;;;;;;55.75;28.80;;;9.90;67.40;;;;;;4998492;28;20054;-54
2022/11/30 11:30:48;;;;;;;53.83;28.33;;;9.80;67.40;;;;;;5188663;23;20409;-57
2022/11/30 11:33:20;;;;;;;55.83;28.35;;;9.90;67.40;;;;;;4984650;28;20042;-57
2022/11/30 11:35:49;;;;;;;52.95;28.00;;;9.90;67.50;;;;;;4985669;28;20061;-52
2022/11/30 11:38:26;;;;;;;53.22;29.50;;;9.90;67.40;;;;;;4979770;28;20058;-57
2022/11/30 11:40:59;;;;;;;53.67;27.88;;;9.90;67.30;;;;;;4982706;28;20072;-53
2022/11/30 11:43:28;;;;;;;51.55;28.23;;;9.80;67.30;;;;;;4983782;28;20054;-57
2022/11/30 11:45:57;;;;;;;47.70;26.13;;;9.80;67.30;;;;;;4982846;28;20415;-57
2022/11/30 11:48:31;;;;;;;56.00;28.52;;;9.80;67.50;;;;;;4984442;28;20054;-52
2022/11/30 11:51:01;;;;;;;51.08;27.25;;;9.80;67.60;;;;;;4983500;28;20046;-55
2022/11/30 11:53:44;;;;;;;54.53;28.80;;;9.90;67.70;;;;;;4983416;28;20065;-57
2022/11/30 11:56:16;;;;;;;48.78;27.00;;;9.80;67.60;;;;;;4982485;28;20508;-56
2022/11/30 11:58:49;;;;;;;54.22;28.38;;;9.90;67.70;;;;;;4983397;28;20069;-52
2022/11/30 12:01:25;;;;;;;58.60;30.60;;;9.90;67.80;;;;;;4982677;28;20046;-57
2022/11/30 12:04:03;;;;;;;50.45;27.85;;;9.90;67.70;;;;;;4985014;28;20058;-57
2022/11/30 12:06:32;;;;;;;59.45;29.98;;;9.90;67.70;;;;;;4984721;28;20050;-58
2022/11/30 12:09:06;;;;;;;53.55;28.10;;;9.90;67.70;;;;;;4979694;28;20708;-55
2022/11/30 12:11:42;;;;;;;58.25;28.70;;;9.90;67.80;;;;;;4980651;28;20057;-57
2022/11/30 12:14:12;;;;;;;51.13;28.00;;;9.90;67.60;;;;;;4984767;28;20051;-54
2022/11/30 12:16:57;;;;;;;51.40;27.23;;;9.90;67.70;;;;;;4979353;28;20050;-57
2022/11/30 12:19:32;;;;;;;54.00;28.80;;;9.90;67.70;;;;;;4978522;28;20054;-55
2022/11/30 12:22:05;;;;;;;50.45;28.02;;;9.90;67.70;;;;;;4982847;28;20540;-56
2022/11/30 12:25:07;;;;;;;50.53;27.42;;;9.90;67.60;;;;;;4984272;28;20054;-57
2022/11/30 12:27:43;;;;;;;51.40;27.65;;;10.00;67.70;;;;;;4980528;28;20061;-53
2022/11/30 12:30:17;;;;;;;50.60;28.05;;;10.00;67.50;;;;;;4983537;28;20065;-56
2022/11/30 12:33:06;;;;;;;52.78;29.33;;;9.90;67.40;;;;;;4983007;28;20410;-55
2022/11/30 12:35:39;;;;;;;51.40;27.27;;;9.90;67.40;;;;;;4984339;28;20058;-52
2022/11/30 12:38:18;;;;;;;52.67;28.08;;;9.90;67.50;;;;;;4982030;28;20058;-56
2022/11/30 12:40:57;;;;;;;50.42;29.05;;;9.90;67.50;;;;;;4982873;28;20073;-57
2022/11/30 12:43:32;;;;;;;53.20;29.23;;;9.90;67.60;;;;;;4982723;28;20046;-56
2022/11/30 12:46:09;;;;;;;55.97;27.92;;;9.90;67.80;;;;;;4977605;28;20061;-56